createdAt,value
2022-09-11T00:01:40.371Z,15.38
2022-09-11T00:04:08.996Z,15.75
2022-09-11T00:06:37.131Z,14.80
2022-09-11T00:09:08.557Z,15.25
2022-09-11T00:14:10.210Z,16.58
2022-09-11T00:16:41.804Z,14.27
2022-09-11T00:19:14.193Z,13.23
2022-09-11T00:21:43.017Z,13.88
2022-09-11T00:24:13.187Z,15.68
2022-09-11T00:26:42.354Z,14.90
2022-09-11T00:29:10.603Z,15.65
2022-09-11T00:31:39.063Z,13.50
2022-09-11T00:34:07.892Z,13.63
2022-09-11T00:36:41.149Z,14.40
2022-09-11T00:39:12.172Z,13.45
2022-09-11T00:41:43.138Z,14.87
2022-09-11T00:45:00.328Z,14.73
2022-09-11T00:47:30.964Z,13.77
2022-09-11T00:50:11.063Z,14.75
2022-09-11T00:52:45.032Z,15.52
2022-09-11T00:55:19.145Z,16.00
2022-09-11T00:57:52.971Z,15.07
2022-09-11T01:00:22.213Z,15.48
2022-09-11T01:02:54.474Z,14.90
2022-09-11T01:05:24.639Z,15.80
2022-09-11T01:07:54.521Z,16.73
2022-09-11T01:10:33.193Z,16.75
2022-09-11T01:13:10.459Z,16.52
2022-09-11T01:15:48.303Z,16.48
2022-09-11T01:18:27.165Z,17.30
2022-09-11T01:21:13.534Z,16.20
2022-09-11T01:24:03.146Z,15.60
2022-09-11T01:27:41.722Z,15.32
2022-09-11T01:30:13.430Z,16.15
2022-09-11T01:33:05.086Z,15.73
2022-09-11T01:35:43.352Z,15.50
2022-09-11T01:38:22.124Z,16.63
2022-09-11T01:40:55.530Z,15.05
2022-09-11T01:43:29.472Z,43.55
2022-09-11T01:46:01.818Z,34.25
2022-09-11T01:48:39.011Z,16.45
2022-09-11T01:51:09.363Z,16.17
2022-09-11T01:53:42.946Z,15.93
2022-09-11T01:56:20.829Z,17.63
2022-09-11T01:58:56.086Z,17.35
2022-09-11T02:01:29.744Z,17.77
2022-09-11T02:04:07.225Z,16.92
2022-09-11T02:06:47.479Z,16.80
2022-09-11T02:09:22.739Z,16.48
2022-09-11T02:11:55.540Z,19.65
2022-09-11T02:14:31.907Z,19.33
2022-09-11T02:17:08.836Z,17.00
2022-09-11T02:19:40.861Z,21.20
2022-09-11T02:22:09.391Z,18.92
2022-09-11T02:24:39.198Z,55.45
2022-09-11T02:27:13.607Z,40.88
2022-09-11T02:29:44.736Z,19.50
2022-09-11T02:32:13.051Z,20.05
2022-09-11T02:34:45.380Z,21.25
2022-09-11T02:37:31.194Z,21.35
2022-09-11T02:40:25.553Z,21.63
2022-09-11T02:43:39.639Z,20.77
2022-09-11T02:46:31.024Z,21.73
2022-09-11T02:49:09.352Z,20.48
2022-09-11T02:51:47.798Z,19.08
2022-09-11T02:54:30.173Z,22.27
2022-09-11T02:57:07.998Z,21.10
2022-09-11T02:59:42.195Z,19.55
2022-09-11T03:02:15.871Z,18.35
2022-09-11T03:04:44.058Z,21.63
2022-09-11T03:07:12.719Z,20.73
2022-09-11T03:09:42.082Z,21.38
2022-09-11T03:12:16.785Z,22.45
2022-09-11T03:14:49.606Z,22.48
2022-09-11T03:17:19.939Z,23.23
2022-09-11T03:19:49.194Z,24.15
2022-09-11T03:22:18.912Z,23.13
2022-09-11T03:24:48.098Z,24.42
2022-09-11T03:27:17.161Z,26.98
2022-09-11T03:29:46.513Z,27.98
2022-09-11T03:32:16.121Z,25.30
2022-09-11T03:34:46.990Z,25.33
2022-09-11T03:37:15.856Z,25.17
2022-09-11T03:39:44.585Z,26.25
2022-09-11T03:42:13.202Z,21.63
2022-09-11T03:44:42.185Z,21.45
2022-09-11T03:47:13.678Z,22.13
2022-09-11T03:49:41.716Z,20.50
2022-09-11T03:52:11.574Z,20.55
2022-09-11T03:54:40.764Z,18.63
2022-09-11T03:57:09.638Z,19.35
2022-09-11T03:59:40.091Z,20.33
2022-09-11T04:02:08.213Z,20.40
2022-09-11T04:04:37.782Z,20.40
2022-09-11T04:07:06.253Z,19.83
2022-09-11T04:09:35.797Z,22.73
2022-09-11T04:12:04.619Z,21.60
2022-09-11T04:14:32.808Z,25.05
2022-09-11T04:17:00.901Z,27.55
2022-09-11T04:19:30.234Z,25.92
2022-09-11T04:21:58.408Z,26.80
2022-09-11T04:24:26.602Z,28.23
2022-09-11T04:27:00.486Z,30.50
2022-09-11T04:29:32.532Z,30.30
2022-09-11T04:32:00.769Z,30.10
2022-09-11T04:34:32.129Z,29.52
2022-09-11T04:37:00.553Z,28.60
2022-09-11T04:39:31.869Z,30.80
2022-09-11T04:42:01.992Z,28.67
2022-09-11T04:44:30.628Z,30.15
2022-09-11T04:46:59.142Z,28.73
2022-09-11T04:49:27.218Z,24.60
2022-09-11T04:51:55.497Z,26.55
2022-09-11T04:54:25.332Z,27.52
2022-09-11T04:56:54.811Z,27.02
2022-09-11T04:59:24.831Z,26.90
2022-09-11T05:01:58.826Z,24.65
2022-09-11T05:04:27.127Z,26.10
2022-09-11T05:06:56.659Z,26.70
2022-09-11T05:09:27.937Z,27.40
2022-09-11T05:11:57.616Z,27.75
2022-09-11T05:14:32.798Z,29.02
2022-09-11T05:17:02.990Z,30.10
2022-09-11T05:19:32.411Z,31.65
2022-09-11T05:22:00.819Z,33.60
2022-09-11T05:24:29.869Z,32.05
2022-09-11T05:26:59.839Z,32.60
2022-09-11T05:29:32.458Z,38.55
2022-09-11T05:32:09.301Z,34.35
2022-09-11T05:34:37.410Z,34.92
2022-09-11T05:37:06.669Z,37.08
2022-09-11T05:39:40.829Z,38.42
2022-09-11T05:42:10.527Z,34.60
2022-09-11T05:44:43.654Z,39.33
2022-09-11T05:47:11.719Z,40.22
2022-09-11T05:49:41.154Z,40.75
2022-09-11T05:52:09.722Z,38.80
2022-09-11T05:54:37.917Z,40.45
2022-09-11T05:57:07.928Z,38.95
2022-09-11T05:59:38.108Z,41.42
2022-09-11T06:02:07.780Z,39.88
2022-09-11T06:04:44.514Z,40.28
2022-09-11T06:07:13.693Z,40.08
2022-09-11T06:09:43.840Z,39.97
2022-09-11T06:12:12.777Z,40.05
2022-09-11T06:14:44.434Z,39.28
2022-09-11T06:17:14.628Z,38.88
2022-09-11T06:19:42.840Z,41.03
2022-09-11T06:22:11.134Z,37.58
2022-09-11T06:24:44.765Z,37.83
2022-09-11T06:27:12.933Z,39.28
2022-09-11T06:32:15.096Z,37.70
2022-09-11T06:34:43.340Z,38.08
2022-09-11T06:37:14.792Z,38.40
2022-09-11T06:39:43.015Z,39.30
2022-09-11T06:42:17.909Z,35.97
2022-09-11T06:44:50.599Z,37.05
2022-09-11T06:47:20.836Z,33.45
2022-09-11T06:49:49.551Z,32.83
2022-09-11T06:52:37.910Z,31.90
2022-09-11T06:55:27.695Z,30.00
2022-09-11T06:58:00.807Z,30.48
2022-09-11T07:00:31.848Z,28.75
2022-09-11T07:03:02.175Z,29.77
2022-09-11T07:05:31.493Z,31.10
2022-09-11T07:08:02.265Z,29.85
2022-09-11T07:10:34.503Z,31.33
2022-09-11T07:13:03.568Z,30.13
2022-09-11T07:15:32.874Z,31.25
2022-09-11T07:18:03.475Z,31.88
2022-09-11T07:20:32.211Z,28.38
2022-09-11T07:23:00.623Z,27.70
2022-09-11T07:25:31.663Z,27.63
2022-09-11T07:27:59.933Z,27.02
2022-09-11T07:30:28.849Z,27.42
2022-09-11T07:32:58.113Z,26.20
2022-09-11T07:35:27.761Z,25.38
2022-09-11T07:37:57.306Z,25.97
2022-09-11T07:40:28.067Z,27.90
2022-09-11T07:42:59.340Z,29.40
2022-09-11T07:45:29.133Z,29.25
2022-09-11T07:47:57.459Z,31.77
2022-09-11T07:50:28.111Z,31.35
2022-09-11T07:52:56.744Z,31.55
2022-09-11T07:55:25.155Z,31.63
2022-09-11T07:57:55.005Z,32.13
2022-09-11T08:00:24.451Z,32.40
2022-09-11T08:03:01.715Z,32.45
2022-09-11T08:05:36.187Z,31.75
2022-09-11T08:08:04.797Z,32.67
2022-09-11T08:10:33.653Z,32.75
2022-09-11T08:13:01.917Z,32.22
2022-09-11T08:15:33.783Z,33.08
2022-09-11T08:18:04.193Z,30.75
2022-09-11T08:20:33.538Z,33.28
2022-09-11T08:23:03.746Z,32.53
2022-09-11T08:25:31.828Z,32.67
2022-09-11T08:28:01.537Z,32.83
2022-09-11T08:30:29.752Z,31.55
2022-09-11T08:32:58.278Z,29.95
2022-09-11T08:35:27.232Z,30.55
2022-09-11T08:37:55.939Z,28.85
2022-09-11T08:40:26.173Z,27.85
2022-09-11T08:43:01.249Z,29.95
2022-09-11T08:45:36.291Z,29.80
2022-09-11T08:48:09.280Z,31.67
2022-09-11T08:50:42.634Z,31.92
2022-09-11T08:53:17.416Z,33.17
2022-09-11T08:55:51.806Z,29.55
2022-09-11T08:58:31.464Z,31.52
2022-09-11T09:01:12.324Z,30.13
2022-09-11T09:04:04.498Z,30.60
2022-09-11T09:06:55.170Z,31.07
2022-09-11T09:09:35.409Z,33.13
2022-09-11T09:12:18.209Z,30.63
2022-09-11T09:15:14.642Z,32.57
2022-09-11T09:17:48.057Z,29.40
2022-09-11T09:20:22.603Z,29.80
2022-09-11T09:22:59.037Z,27.88
2022-09-11T09:25:29.996Z,28.13
2022-09-11T09:28:09.817Z,27.53
2022-09-11T09:30:47.817Z,25.13
2022-09-11T09:33:30.690Z,24.83
2022-09-11T09:36:13.062Z,25.38
2022-09-11T09:38:41.452Z,22.63
2022-09-11T09:41:56.861Z,22.88
2022-09-11T09:44:46.302Z,22.35
2022-09-11T09:47:15.984Z,21.52
2022-09-11T09:49:45.038Z,22.45
2022-09-11T09:52:19.451Z,21.48
2022-09-11T09:54:57.030Z,21.67
2022-09-11T09:57:31.477Z,20.90
2022-09-11T10:00:07.463Z,18.88
2022-09-11T10:05:25.046Z,17.17
2022-09-11T10:07:56.728Z,15.88
2022-09-11T10:10:31.200Z,14.63
2022-09-11T10:13:18.460Z,15.48
2022-09-11T10:15:50.565Z,16.13
2022-09-11T10:18:38.541Z,15.68
2022-09-11T10:21:24.055Z,15.25
2022-09-11T10:23:55.691Z,15.68
2022-09-11T10:26:30.031Z,16.02
2022-09-11T10:29:13.850Z,16.33
2022-09-11T10:31:50.911Z,15.68
2022-09-11T10:34:21.282Z,15.88
2022-09-11T10:36:57.622Z,15.07
2022-09-11T10:39:28.692Z,16.75
2022-09-11T10:42:05.403Z,14.48
2022-09-11T10:44:35.140Z,13.90
2022-09-11T10:47:17.388Z,13.60
2022-09-11T10:49:47.144Z,15.52
2022-09-11T10:52:22.218Z,15.45
2022-09-11T10:55:03.028Z,13.70
2022-09-11T10:57:38.248Z,14.27
2022-09-11T11:00:17.071Z,13.93
2022-09-11T11:02:49.649Z,14.60
2022-09-11T11:05:24.604Z,14.38
2022-09-11T11:08:22.451Z,14.30
2022-09-11T11:11:14.820Z,14.25
2022-09-11T11:14:05.439Z,15.20
2022-09-11T11:16:47.511Z,14.93
2022-09-11T11:19:56.764Z,15.48
2022-09-11T11:22:46.755Z,16.58
2022-09-11T11:25:22.936Z,17.10
2022-09-11T11:28:11.693Z,16.27
2022-09-11T11:30:50.161Z,17.15
2022-09-11T11:33:50.386Z,17.05
2022-09-11T11:36:31.672Z,16.52
2022-09-11T11:39:03.081Z,15.68
2022-09-11T11:41:38.850Z,15.45
2022-09-11T11:44:15.786Z,16.48
2022-09-11T11:46:52.259Z,14.82
2022-09-11T11:49:27.264Z,13.60
2022-09-11T11:52:06.078Z,12.60
2022-09-11T11:54:42.966Z,12.27
2022-09-11T11:57:16.785Z,12.20
2022-09-11T11:59:57.142Z,12.68
2022-09-11T12:02:34.352Z,13.05
2022-09-11T12:05:08.728Z,12.43
2022-09-11T12:07:41.265Z,12.55
2022-09-11T12:10:29.489Z,11.63
2022-09-11T12:13:02.832Z,11.10
2022-09-11T12:15:34.556Z,10.30
2022-09-11T12:18:06.868Z,10.20
2022-09-11T12:20:40.785Z,9.98
2022-09-11T12:23:56.562Z,7.75
2022-09-11T12:26:25.848Z,8.15
2022-09-11T12:29:56.208Z,9.18
2022-09-11T12:32:42.853Z,8.68
2022-09-11T12:35:32.843Z,9.60
2022-09-11T12:38:20.063Z,9.30
2022-09-11T12:40:56.254Z,9.82
2022-09-11T12:43:47.637Z,10.38
2022-09-11T12:47:16.563Z,10.32
2022-09-11T12:49:56.128Z,12.05
2022-09-11T12:52:35.753Z,11.63
2022-09-11T12:55:26.637Z,12.18
2022-09-11T12:57:56.739Z,12.13
2022-09-11T13:00:35.189Z,11.68
2022-09-11T13:03:04.763Z,11.95
2022-09-11T13:05:38.071Z,11.05
2022-09-11T13:08:10.896Z,11.80
2022-09-11T13:10:40.327Z,11.90
2022-09-11T13:13:45.608Z,12.55
2022-09-11T13:16:24.426Z,11.27
2022-09-11T13:18:54.208Z,12.02
2022-09-11T13:21:26.377Z,11.85
2022-09-11T13:23:54.944Z,12.57
2022-09-11T13:26:30.273Z,13.30
2022-09-11T13:29:02.082Z,13.50
2022-09-11T13:34:07.739Z,11.55
2022-09-11T13:36:38.000Z,11.35
2022-09-11T13:39:07.626Z,11.45
2022-09-11T13:41:41.005Z,12.55
2022-09-11T13:44:31.027Z,11.55
2022-09-11T13:47:00.531Z,11.45
2022-09-11T13:49:37.129Z,11.20
2022-09-11T13:52:06.904Z,9.93
2022-09-11T13:54:38.741Z,9.50
2022-09-11T13:57:17.861Z,8.90
2022-09-11T13:59:50.161Z,10.30
2022-09-11T14:02:33.019Z,10.18
2022-09-11T14:05:10.911Z,9.80
2022-09-11T14:07:48.283Z,9.55
2022-09-11T14:10:24.806Z,8.38
2022-09-11T14:13:00.003Z,8.27
2022-09-11T14:15:40.165Z,8.20
2022-09-11T14:18:22.104Z,8.70
2022-09-11T14:20:50.303Z,7.85
2022-09-11T14:23:27.304Z,7.95
2022-09-11T14:26:17.046Z,7.78
2022-09-11T14:29:03.170Z,7.45
2022-09-11T14:31:37.946Z,6.75
2022-09-11T14:34:28.229Z,6.60
2022-09-11T14:36:59.975Z,6.60
2022-09-11T14:39:37.388Z,7.47
2022-09-11T14:42:09.855Z,6.78
2022-09-11T14:44:39.428Z,6.75
2022-09-11T14:47:17.151Z,6.70
2022-09-11T14:49:46.049Z,7.20
2022-09-11T14:52:17.355Z,7.13
2022-09-11T14:54:46.439Z,7.57
2022-09-11T14:57:20.583Z,6.47
2022-09-11T14:59:49.518Z,6.35
2022-09-11T15:02:22.259Z,6.78
2022-09-11T15:04:52.133Z,6.63
2022-09-11T15:07:23.278Z,6.30
2022-09-11T15:09:53.253Z,5.93
2022-09-11T15:12:23.123Z,6.35
2022-09-11T15:14:56.965Z,6.45
2022-09-11T15:17:31.301Z,6.30
2022-09-11T15:20:00.325Z,6.32
2022-09-11T15:22:29.255Z,6.60
2022-09-11T15:24:57.381Z,7.07
2022-09-11T15:27:26.053Z,6.95
2022-09-11T15:29:55.626Z,7.05
2022-09-11T15:32:23.986Z,6.43
2022-09-11T15:34:54.754Z,6.68
2022-09-11T15:37:23.667Z,7.20
2022-09-11T15:39:51.980Z,6.43
2022-09-11T15:42:20.324Z,5.90
2022-09-11T15:44:50.742Z,5.55
2022-09-11T15:47:19.363Z,5.30
2022-09-11T15:49:48.465Z,5.68
2022-09-11T15:52:18.180Z,6.78
2022-09-11T15:54:47.649Z,5.82
2022-09-11T15:57:16.838Z,5.65
2022-09-11T15:59:44.964Z,5.38
2022-09-11T16:02:13.533Z,5.35
2022-09-11T16:04:41.636Z,4.97
2022-09-11T16:07:09.820Z,4.72
2022-09-11T16:09:39.816Z,4.55
2022-09-11T16:12:08.255Z,4.60
2022-09-11T16:14:38.459Z,4.20
2022-09-11T16:17:08.204Z,4.30
2022-09-11T16:19:38.586Z,3.60
2022-09-11T16:22:08.824Z,3.83
2022-09-11T16:24:38.323Z,4.00
2022-09-11T16:27:08.444Z,3.88
2022-09-11T16:30:16.037Z,3.97
2022-09-11T16:32:37.405Z,4.20
2022-09-11T16:35:06.883Z,4.30
2022-09-11T16:37:35.606Z,3.58
2022-09-11T16:40:06.481Z,4.03
2022-09-11T16:42:34.580Z,3.92
2022-09-11T16:45:02.658Z,3.83
2022-09-11T16:47:32.405Z,3.80
2022-09-11T16:50:08.686Z,4.50
2022-09-11T16:52:37.188Z,4.28
2022-09-11T16:55:09.591Z,4.13
2022-09-11T16:57:37.898Z,3.95
2022-09-11T17:00:07.519Z,3.92
2022-09-11T17:02:35.642Z,3.85
2022-09-11T17:05:04.802Z,3.70
2022-09-11T17:07:32.981Z,3.78
2022-09-11T17:10:01.056Z,3.92
2022-09-11T17:12:30.549Z,3.60
2022-09-11T17:14:58.630Z,4.00
2022-09-11T17:17:26.744Z,3.97
2022-09-11T17:19:54.864Z,3.95
2022-09-11T17:22:22.987Z,3.97
2022-09-11T17:24:51.316Z,4.10
2022-09-11T17:27:19.468Z,4.30
2022-09-11T17:29:48.902Z,4.25
2022-09-11T17:32:29.207Z,4.80
2022-09-11T17:34:58.367Z,5.07
2022-09-11T17:37:27.376Z,5.03
2022-09-11T17:39:55.749Z,4.78
2022-09-11T17:42:23.907Z,4.85
2022-09-11T17:44:53.299Z,5.28
2022-09-11T17:47:21.361Z,4.93
2022-09-11T17:49:50.149Z,4.70
2022-09-11T17:52:20.353Z,5.00
2022-09-11T17:54:49.030Z,5.30
2022-09-11T17:57:17.116Z,5.05
2022-09-11T17:59:45.204Z,5.32
2022-09-11T18:02:15.020Z,6.00
2022-09-11T18:04:44.244Z,5.60
2022-09-11T18:07:12.700Z,5.47
2022-09-11T18:09:40.745Z,5.20
2022-09-11T18:12:10.066Z,6.22
2022-09-11T18:14:39.447Z,6.75
2022-09-11T18:17:07.823Z,6.30
2022-09-11T18:19:38.924Z,7.03
2022-09-11T18:22:09.723Z,6.77
2022-09-11T18:24:39.810Z,6.85
2022-09-11T18:27:09.775Z,7.45
2022-09-11T18:29:39.975Z,8.95
2022-09-11T18:32:10.209Z,9.82
2022-09-11T18:34:40.099Z,10.65
2022-09-11T18:37:08.621Z,10.38
2022-09-11T18:39:38.314Z,10.48
2022-09-11T18:42:07.451Z,10.40
2022-09-11T18:44:35.611Z,11.00
2022-09-11T18:47:04.054Z,11.60
2022-09-11T18:49:32.284Z,11.07
2022-09-11T18:52:02.016Z,11.55
2022-09-11T18:54:31.533Z,10.65
2022-09-11T18:57:00.194Z,11.55
2022-09-11T18:59:28.798Z,10.57
2022-09-11T19:01:57.080Z,11.30
2022-09-11T19:04:26.076Z,10.95
2022-09-11T19:06:54.219Z,11.57
2022-09-11T19:09:23.594Z,11.95
2022-09-11T19:11:52.385Z,11.50
2022-09-11T19:14:21.044Z,11.32
2022-09-11T19:16:49.215Z,10.50
2022-09-11T19:19:17.792Z,11.43
2022-09-11T19:21:45.978Z,11.68
2022-09-11T19:24:14.014Z,11.32
2022-09-11T19:26:45.140Z,12.30
2022-09-11T19:29:15.822Z,11.52
2022-09-11T19:31:44.388Z,11.60
2022-09-11T19:34:14.744Z,12.30
2022-09-11T19:36:43.428Z,11.43
2022-09-11T19:39:12.261Z,11.18
2022-09-11T19:41:40.987Z,12.45
2022-09-11T19:44:14.148Z,11.80
2022-09-11T19:46:44.102Z,11.07
2022-09-11T19:49:12.377Z,11.57
2022-09-11T19:51:44.977Z,11.35
2022-09-11T19:54:14.347Z,11.52
2022-09-11T19:56:44.351Z,11.57
2022-09-11T19:59:14.316Z,10.85
2022-09-11T20:01:42.970Z,11.68
2022-09-11T20:04:13.482Z,11.00
2022-09-11T20:06:41.691Z,11.77
2022-09-11T20:11:58.181Z,12.80
2022-09-11T20:14:27.567Z,12.18
2022-09-11T20:16:55.637Z,12.70
2022-09-11T20:19:23.696Z,13.45
2022-09-11T20:21:51.758Z,13.55
2022-09-11T20:24:20.034Z,12.15
2022-09-11T20:26:48.119Z,12.55
2022-09-11T20:29:16.706Z,12.32
2022-09-11T20:31:48.504Z,14.15
2022-09-11T20:34:18.220Z,15.18
2022-09-11T20:36:46.744Z,13.85
2022-09-11T20:39:16.094Z,14.32
2022-09-11T20:41:44.892Z,13.55
2022-09-11T20:44:13.281Z,12.73
2022-09-11T20:46:43.645Z,13.95
2022-09-11T20:49:13.887Z,14.27
2022-09-11T20:51:41.945Z,13.13
2022-09-11T20:54:10.650Z,12.75
2022-09-11T20:56:39.008Z,13.20
2022-09-11T20:59:07.438Z,14.57
2022-09-11T21:01:36.131Z,13.80
2022-09-11T21:04:05.543Z,13.65
2022-09-11T21:06:36.771Z,14.25
2022-09-11T21:09:08.832Z,14.87
2022-09-11T21:11:37.807Z,14.90
2022-09-11T21:14:06.961Z,12.98
2022-09-11T21:16:35.663Z,14.05
2022-09-11T21:19:04.681Z,13.85
2022-09-11T21:21:37.703Z,14.10
2022-09-11T21:24:08.255Z,14.00
2022-09-11T21:26:36.413Z,14.05
2022-09-11T21:29:06.827Z,14.68
2022-09-11T21:31:35.768Z,14.75
2022-09-11T21:34:04.648Z,14.52
2022-09-11T21:36:34.467Z,14.68
2022-09-11T21:39:02.565Z,14.63
2022-09-11T21:41:30.641Z,16.40
2022-09-11T21:43:58.750Z,14.30
2022-09-11T21:46:26.944Z,15.50
2022-09-11T21:48:55.341Z,14.25
2022-09-11T21:51:23.606Z,15.32
2022-09-11T21:53:59.084Z,15.48
2022-09-11T21:56:30.390Z,16.20
2022-09-11T21:58:59.850Z,15.98
2022-09-11T22:01:29.545Z,16.00
2022-09-11T22:04:00.002Z,14.52
2022-09-11T22:06:29.056Z,16.10
2022-09-11T22:08:58.801Z,15.18
2022-09-11T22:11:27.307Z,15.10
2022-09-11T22:13:55.896Z,14.93
2022-09-11T22:16:24.118Z,16.50
2022-09-11T22:18:55.054Z,15.27
2022-09-11T22:21:23.497Z,15.88
2022-09-11T22:23:51.564Z,15.27
2022-09-11T22:26:24.381Z,16.75
2022-09-11T22:28:52.981Z,17.90
2022-09-11T22:31:24.853Z,16.10
2022-09-11T22:33:55.057Z,14.38
2022-09-11T22:36:25.652Z,15.88
2022-09-11T22:38:54.404Z,16.35
2022-09-11T22:41:24.589Z,14.52
2022-09-11T22:43:53.293Z,15.18
2022-09-11T22:46:22.226Z,15.00
2022-09-11T22:48:50.667Z,15.77
2022-09-11T22:51:18.741Z,17.30
2022-09-11T22:53:47.231Z,14.80
2022-09-11T22:56:15.638Z,14.98
2022-09-11T22:58:45.145Z,14.32
2022-09-11T23:01:21.879Z,15.48
2022-09-11T23:03:51.242Z,15.63
2022-09-11T23:06:39.824Z,14.82
2022-09-11T23:09:10.760Z,15.73
2022-09-11T23:11:38.767Z,15.07
2022-09-11T23:14:13.338Z,15.73
2022-09-11T23:16:44.014Z,16.13
2022-09-11T23:19:14.888Z,17.73
2022-09-11T23:21:43.411Z,16.63
2022-09-11T23:24:14.464Z,16.20
2022-09-11T23:26:43.331Z,16.83
2022-09-11T23:29:13.528Z,17.50
2022-09-11T23:31:42.335Z,17.23
2022-09-11T23:34:14.568Z,17.83
2022-09-11T23:36:42.894Z,16.38
2022-09-11T23:39:11.089Z,17.10
2022-09-11T23:41:39.188Z,15.15
2022-09-11T23:44:07.426Z,16.30
2022-09-11T23:46:36.866Z,17.35
2022-09-11T23:49:06.324Z,18.13
2022-09-11T23:51:34.683Z,19.30
2022-09-11T23:54:02.793Z,17.52
2022-09-11T23:56:30.851Z,17.58
2022-09-11T23:58:58.987Z,16.45
